Time;durP1;ratioP1;P1;durP2;ratioP2;P2;SDS_P1;SDS_P2;PMS_P1;PMS_P2;Temp;Humidity;BMP_temperature;BMP_pressure;BME280_temperature;BME280_humidity;BME280_pressure;Samples;Min_cycle;Max_cycle;Signal;HPM_P1;HPM_P2
2023/06/10 00:01:28;;;;;;;38.13;16.17;;;11.70;99.90;;;;;;6261834;22;20004;-88
2023/06/10 00:03:54;;;;;;;29.75;16.77;;;11.70;99.90;;;;;;6259973;22;20014;-89
2023/06/10 00:06:21;;;;;;;29.23;16.58;;;11.70;99.90;;;;;;6258513;22;20016;-88
2023/06/10 00:08:47;;;;;;;29.70;16.60;;;11.70;99.90;;;;;;6258655;22;20007;-89
2023/06/10 00:11:13;;;;;;;31.95;16.50;;;11.70;99.90;;;;;;6260676;22;20004;-89
2023/06/10 00:13:40;;;;;;;25.13;11.93;;;11.70;99.90;;;;;;6258696;22;20019;-88
2023/06/10 00:16:05;;;;;;;30.02;17.58;;;11.70;99.90;;;;;;6258760;22;20063;-88
2023/06/10 00:18:31;;;;;;;33.35;16.35;;;11.70;99.90;;;;;;6265216;22;20022;-88
2023/06/10 00:21:03;;;;;;;33.30;18.38;;;11.70;99.90;;;;;;6260758;22;20015;-89
2023/06/10 00:23:30;;;;;;;36.03;18.67;;;11.70;99.90;;;;;;6257559;22;20004;-89
2023/06/10 00:25:59;;;;;;;35.22;18.77;;;11.70;99.90;;;;;;6254771;22;20008;-88
2023/06/10 00:28:25;;;;;;;21.92;13.60;;;11.70;99.90;;;;;;6254783;22;20035;-88
2023/06/10 00:30:51;;;;;;;35.72;18.58;;;11.70;99.90;;;;;;6254872;22;20007;-88
2023/06/10 00:33:17;;;;;;;36.53;18.63;;;11.70;99.90;;;;;;6254093;22;20007;-88
2023/06/10 00:35:43;;;;;;;33.33;20.00;;;11.60;99.90;;;;;;6253589;22;20071;-89
2023/06/10 00:38:08;;;;;;;40.67;20.10;;;11.60;99.90;;;;;;6280778;22;20000;-89
2023/06/10 00:40:40;;;;;;;42.78;20.20;;;11.60;99.90;;;;;;6252948;22;20435;-89
2023/06/10 00:43:07;;;;;;;39.47;20.65;;;11.60;99.90;;;;;;6253032;22;20004;-89
2023/06/10 00:45:32;;;;;;;37.35;19.25;;;11.50;99.90;;;;;;6253235;22;20453;-88
2023/06/10 00:48:02;;;;;;;30.65;16.63;;;11.40;99.90;;;;;;6253622;22;20047;-89
2023/06/10 00:50:28;;;;;;;41.45;22.02;;;11.40;99.90;;;;;;6253630;22;20073;-88
2023/06/10 00:52:55;;;;;;;41.28;19.90;;;11.30;99.90;;;;;;6252512;22;20012;-88
2023/06/10 00:55:21;;;;;;;34.08;20.90;;;11.30;99.90;;;;;;6253065;22;20015;-88
2023/06/10 00:57:48;;;;;;;41.47;20.10;;;11.40;99.90;;;;;;6252729;22;20543;-88
2023/06/10 01:00:15;;;;;;;37.17;20.55;;;11.40;99.90;;;;;;6252935;22;20030;-88
2023/06/10 01:02:41;;;;;;;39.20;19.90;;;11.40;99.90;;;;;;6253990;22;20298;-89
2023/06/10 01:05:09;;;;;;;33.13;21.15;;;11.40;99.90;;;;;;6257504;22;20000;-89
2023/06/10 01:07:46;;;;;;;42.33;21.75;;;11.40;99.90;;;;;;6260918;22;20098;-87
2023/06/10 01:10:24;;;;;;;33.38;20.55;;;11.30;99.90;;;;;;6259717;22;20004;-89
2023/06/10 01:12:59;;;;;;;31.98;19.60;;;11.20;99.90;;;;;;6252167;22;20004;-89
2023/06/10 01:15:25;;;;;;;33.25;19.75;;;11.20;99.90;;;;;;6252066;22;20007;-88
2023/06/10 01:17:54;;;;;;;39.30;21.52;;;11.20;99.90;;;;;;6252405;22;20003;-89
2023/06/10 01:20:20;;;;;;;32.28;16.10;;;11.20;99.90;;;;;;6251845;22;20004;-89
2023/06/10 01:22:47;;;;;;;32.45;18.52;;;11.20;99.90;;;;;;6279778;22;20083;-89
2023/06/10 01:25:13;;;;;;;31.30;18.02;;;11.20;99.90;;;;;;6252073;22;20004;-89
2023/06/10 01:27:42;;;;;;;34.22;18.33;;;11.20;99.90;;;;;;6252075;22;20086;-88
2023/06/10 01:30:15;;;;;;;32.58;17.67;;;11.10;99.90;;;;;;6251995;22;20513;-88
2023/06/10 01:32:47;;;;;;;27.20;18.23;;;11.10;99.90;;;;;;6251980;22;20004;-88
2023/06/10 01:35:15;;;;;;;32.13;16.45;;;11.10;99.90;;;;;;6252850;22;20019;-88
2023/06/10 01:37:45;;;;;;;26.17;15.32;;;11.10;99.90;;;;;;6252861;22;20050;-89
2023/06/10 01:40:12;;;;;;;38.05;18.08;;;11.20;99.90;;;;;;6252961;22;19999;-89
2023/06/10 01:42:38;;;;;;;36.50;18.98;;;11.20;99.90;;;;;;6278019;22;20050;-89
2023/06/10 01:45:04;;;;;;;37.38;18.65;;;11.20;99.90;;;;;;6252967;22;20011;-88
2023/06/10 01:47:30;;;;;;;34.40;16.63;;;11.10;99.90;;;;;;6252296;22;20054;-88
2023/06/10 01:49:56;;;;;;;37.25;18.88;;;11.20;99.90;;;;;;6252684;22;19999;-88
2023/06/10 01:52:21;;;;;;;38.67;18.83;;;11.20;99.90;;;;;;6251531;22;20007;-89
2023/06/10 01:54:47;;;;;;;32.55;18.23;;;11.10;99.90;;;;;;6251397;22;20042;-88
2023/06/10 01:57:13;;;;;;;36.08;19.58;;;11.10;99.90;;;;;;6251380;22;20008;-89
2023/06/10 01:59:39;;;;;;;31.45;19.40;;;11.00;99.90;;;;;;6251303;22;20033;-88
2023/06/10 02:02:05;;;;;;;37.22;18.63;;;11.10;99.90;;;;;;6251454;22;20011;-88
2023/06/10 02:04:30;;;;;;;29.85;18.40;;;11.10;99.90;;;;;;6251757;22;20437;-89
2023/06/10 02:06:56;;;;;;;31.80;16.98;;;11.10;99.90;;;;;;6251350;22;20012;-87
2023/06/10 02:09:22;;;;;;;32.70;17.77;;;11.10;99.90;;;;;;6251679;22;20010;-88
2023/06/10 02:11:51;;;;;;;34.55;17.75;;;11.10;99.90;;;;;;6252185;22;20079;-89
2023/06/10 02:14:17;;;;;;;34.90;15.98;;;11.10;99.90;;;;;;6251272;22;20005;-89
2023/06/10 02:16:45;;;;;;;30.45;16.77;;;11.10;99.90;;;;;;6250818;22;20015;-89
2023/06/10 02:19:11;;;;;;;33.60;17.27;;;11.00;99.90;;;;;;6251392;22;20000;-90
2023/06/10 02:21:36;;;;;;;34.42;17.27;;;11.00;99.90;;;;;;6250757;22;20010;-89
2023/06/10 02:24:02;;;;;;;34.55;18.33;;;11.00;99.90;;;;;;6251758;22;20003;-89
2023/06/10 02:26:28;;;;;;;31.92;16.00;;;11.10;99.90;;;;;;6251008;22;20020;-89
2023/06/10 02:28:54;;;;;;;34.83;17.00;;;11.10;99.90;;;;;;6250969;22;20081;-89
2023/06/10 02:31:21;;;;;;;33.42;17.77;;;11.10;99.90;;;;;;6250679;22;20004;-89
2023/06/10 02:33:46;;;;;;;33.95;16.15;;;11.10;99.90;;;;;;6251228;22;20000;-89
2023/06/10 02:36:15;;;;;;;24.75;16.02;;;11.00;99.90;;;;;;6250972;22;20000;-89
2023/06/10 02:38:41;;;;;;;30.80;17.63;;;11.00;99.90;;;;;;6250616;22;20090;-88
2023/06/10 02:41:07;;;;;;;30.27;16.10;;;11.00;99.90;;;;;;6251064;22;20511;-89
2023/06/10 02:43:33;;;;;;;28.98;16.30;;;11.00;99.90;;;;;;6250284;22;20007;-89
2023/06/10 02:45:59;;;;;;;36.33;18.20;;;11.00;99.90;;;;;;6250619;22;20012;-89
2023/06/10 02:48:24;;;;;;;27.52;16.45;;;11.00;99.90;;;;;;6250520;22;20013;-90
2023/06/10 02:50:50;;;;;;;32.35;17.42;;;11.00;99.90;;;;;;6250463;22;20011;-89
2023/06/10 02:53:16;;;;;;;31.98;17.40;;;11.00;99.90;;;;;;6250089;22;20008;-87
2023/06/10 02:55:42;;;;;;;33.55;17.20;;;11.00;99.90;;;;;;6249653;22;20027;-89
2023/06/10 02:58:08;;;;;;;28.13;17.08;;;11.00;99.90;;;;;;6250269;22;20003;-89
2023/06/10 03:00:34;;;;;;;32.67;18.42;;;11.00;99.90;;;;;;6250772;22;20145;-89
2023/06/10 03:03:02;;;;;;;33.90;19.02;;;11.00;99.90;;;;;;6250493;22;20000;-89
2023/06/10 03:05:28;;;;;;;31.40;18.15;;;11.00;99.90;;;;;;6250781;22;20004;-89
2023/06/10 03:07:54;;;;;;;30.75;15.45;;;10.90;99.90;;;;;;6256288;22;20016;-89
2023/06/10 03:10:20;;;;;;;36.53;17.35;;;10.80;99.90;;;;;;6256464;22;20030;-89
2023/06/10 03:12:45;;;;;;;37.53;18.65;;;10.70;99.90;;;;;;6252718;22;20056;-90
2023/06/10 03:15:11;;;;;;;30.95;17.92;;;10.70;99.90;;;;;;6279221;22;20000;-89
2023/06/10 03:17:37;;;;;;;31.98;17.23;;;10.70;99.90;;;;;;6279808;22;20010;-88
2023/06/10 03:20:05;;;;;;;40.00;18.17;;;10.70;99.90;;;;;;6251971;22;20011;-87
2023/06/10 03:22:31;;;;;;;35.38;17.52;;;10.70;99.90;;;;;;6279040;22;20478;-90
2023/06/10 03:24:57;;;;;;;29.92;15.68;;;10.70;99.90;;;;;;6252616;22;20004;-89
2023/06/10 03:27:23;;;;;;;34.35;17.45;;;10.70;99.90;;;;;;6252213;22;20020;-89
2023/06/10 03:29:48;;;;;;;29.15;16.08;;;10.80;99.90;;;;;;6279161;22;20007;-88
2023/06/10 03:32:14;;;;;;;28.25;16.75;;;10.70;99.90;;;;;;6253294;22;20035;-87
2023/06/10 03:34:40;;;;;;;29.20;16.77;;;10.80;99.90;;;;;;6252548;22;20000;-88
2023/06/10 03:37:06;;;;;;;29.92;16.42;;;10.80;99.90;;;;;;6253966;22;20042;-88
2023/06/10 03:39:33;;;;;;;33.00;15.65;;;10.80;99.90;;;;;;6253375;22;20000;-89
2023/06/10 03:41:58;;;;;;;29.52;16.58;;;10.80;99.90;;;;;;6253647;22;20461;-89
2023/06/10 03:44:25;;;;;;;29.25;16.25;;;10.80;99.90;;;;;;6279013;22;19999;-90
2023/06/10 03:46:51;;;;;;;27.13;15.30;;;10.80;99.90;;;;;;6253400;22;20051;-89
2023/06/10 03:49:17;;;;;;;27.52;15.18;;;10.80;99.90;;;;;;6259158;22;19999;-89
2023/06/10 03:51:43;;;;;;;27.70;15.25;;;10.80;99.90;;;;;;6261867;22;20067;-88
2023/06/10 03:54:09;;;;;;;25.48;14.55;;;10.80;99.90;;;;;;6261515;22;19999;-88
2023/06/10 03:56:35;;;;;;;27.33;13.15;;;10.70;99.90;;;;;;6260863;22;20031;-87
2023/06/10 03:59:01;;;;;;;29.70;14.30;;;10.70;99.90;;;;;;6260460;22;20492;-88
2023/06/10 04:01:27;;;;;;;27.73;14.65;;;10.70;99.90;;;;;;6263963;22;20035;-88
2023/06/10 04:03:54;;;;;;;30.08;14.25;;;10.80;99.90;;;;;;6266984;22;20004;-87
2023/06/10 04:06:22;;;;;;;28.13;13.27;;;10.70;99.90;;;;;;6266889;22;20016;-88
2023/06/10 04:08:48;;;;;;;25.65;14.50;;;10.70;99.90;;;;;;6266882;22;20003;-86
2023/06/10 04:11:14;;;;;;;23.83;13.85;;;10.70;99.90;;;;;;6276195;22;19994;-87
2023/06/10 04:13:39;;;;;;;32.97;14.73;;;10.80;99.90;;;;;;6273196;22;20003;-89
2023/06/10 04:16:05;;;;;;;34.85;15.15;;;10.80;99.90;;;;;;6270932;22;20073;-89
2023/06/10 04:18:31;;;;;;;24.02;13.10;;;10.70;99.90;;;;;;6256768;22;20012;-89
2023/06/10 04:20:56;;;;;;;29.00;15.40;;;10.70;99.90;;;;;;6256676;22;20081;-89
2023/06/10 04:23:22;;;;;;;22.98;13.60;;;10.70;99.90;;;;;;6254161;22;20038;-89
2023/06/10 04:25:48;;;;;;;28.92;13.98;;;10.80;99.90;;;;;;6253924;22;20061;-89
2023/06/10 04:28:14;;;;;;;29.90;14.57;;;10.70;99.90;;;;;;6253388;22;20014;-88
2023/06/10 04:30:41;;;;;;;25.17;14.10;;;10.70;99.90;;;;;;6253235;22;20323;-89
2023/06/10 04:33:09;;;;;;;27.42;14.73;;;10.80;99.90;;;;;;6252713;22;20007;-89
2023/06/10 04:35:35;;;;;;;26.48;13.32;;;10.80;99.90;;;;;;6252994;22;20004;-89
2023/06/10 04:38:03;;;;;;;29.40;13.50;;;10.90;99.90;;;;;;6254523;22;20573;-88
2023/06/10 04:40:28;;;;;;;24.55;12.18;;;10.90;99.90;;;;;;6252739;22;20008;-90
2023/06/10 04:42:54;;;;;;;24.80;11.98;;;10.90;99.90;;;;;;6251899;22;20069;-88
2023/06/10 04:45:20;;;;;;;22.70;11.85;;;10.90;99.90;;;;;;6252044;22;20006;-89
2023/06/10 04:47:45;;;;;;;23.40;11.63;;;10.90;99.90;;;;;;6252564;22;20082;-89
2023/06/10 04:50:11;;;;;;;20.70;10.82;;;10.90;99.90;;;;;;6252789;22;20086;-90
2023/06/10 04:52:37;;;;;;;22.63;11.32;;;10.90;99.90;;;;;;6251800;22;20034;-89
2023/06/10 04:55:03;;;;;;;24.55;10.68;;;10.90;99.90;;;;;;6251848;22;20436;-90
2023/06/10 04:57:29;;;;;;;25.55;10.82;;;10.90;99.90;;;;;;6252752;22;20008;-89
2023/06/10 04:59:54;;;;;;;21.55;11.50;;;10.90;99.90;;;;;;6252662;22;20000;-90
2023/06/10 05:02:20;;;;;;;25.30;11.07;;;11.00;99.90;;;;;;6252492;22;20035;-90
2023/06/10 05:04:46;;;;;;;24.13;11.20;;;11.00;99.90;;;;;;6252278;22;20004;-90
2023/06/10 05:07:12;;;;;;;25.92;11.85;;;11.00;99.90;;;;;;6252706;22;20015;-90
2023/06/10 05:09:38;;;;;;;21.48;10.10;;;11.10;99.90;;;;;;6256242;22;20004;-89
2023/06/10 05:12:05;;;;;;;24.35;11.05;;;11.10;99.90;;;;;;6262698;22;20071;-89
2023/06/10 05:14:31;;;;;;;20.55;11.15;;;11.10;99.90;;;;;;6256642;22;20373;-89
2023/06/10 05:16:56;;;;;;;25.45;11.80;;;11.20;99.90;;;;;;6253128;22;20035;-89
2023/06/10 05:19:22;;;;;;;24.30;11.75;;;11.30;99.90;;;;;;6252379;22;20004;-90
2023/06/10 05:21:48;;;;;;;21.88;11.90;;;11.30;99.90;;;;;;6251697;22;20057;-90
2023/06/10 05:24:13;;;;;;;25.85;12.45;;;11.30;99.90;;;;;;6251962;22;20004;-89
2023/06/10 05:26:40;;;;;;;28.80;11.82;;;11.30;99.90;;;;;;6251490;22;20019;-89
2023/06/10 05:29:08;;;;;;;21.52;11.52;;;11.40;99.90;;;;;;6277343;22;20004;-88
2023/06/10 05:31:33;;;;;;;25.40;12.02;;;11.40;99.90;;;;;;6251649;22;20082;-89
2023/06/10 05:33:59;;;;;;;19.92;11.05;;;11.50;99.90;;;;;;6251517;22;20007;-89
2023/06/10 05:36:28;;;;;;;26.23;11.93;;;11.50;99.90;;;;;;6279264;22;20041;-90
2023/06/10 05:38:53;;;;;;;23.73;10.77;;;11.50;99.90;;;;;;6252035;22;20050;-90
2023/06/10 05:41:20;;;;;;;29.45;13.60;;;11.50;99.90;;;;;;6251188;22;20327;-88
2023/06/10 05:43:45;;;;;;;25.25;12.57;;;11.60;99.90;;;;;;6251352;22;20087;-88
2023/06/10 05:46:11;;;;;;;25.10;10.63;;;11.60;99.90;;;;;;6251059;22;20057;-91
2023/06/10 05:48:37;;;;;;;30.85;12.40;;;11.60;99.90;;;;;;6251330;22;20427;-90
2023/06/10 05:51:02;;;;;;;24.10;10.30;;;11.70;99.90;;;;;;6251337;22;20022;-89
2023/06/10 05:53:28;;;;;;;25.17;10.85;;;11.80;99.90;;;;;;6251277;22;20114;-89
2023/06/10 05:55:57;;;;;;;27.85;12.25;;;11.90;99.90;;;;;;6251004;22;20455;-90
2023/06/10 05:58:23;;;;;;;23.65;10.77;;;11.90;99.90;;;;;;6251330;22;20025;-90
2023/06/10 06:00:49;;;;;;;25.45;11.60;;;11.90;99.90;;;;;;6251399;22;20015;-89
2023/06/10 06:03:15;;;;;;;27.85;12.60;;;11.90;99.90;;;;;;6251347;22;20376;-89
2023/06/10 06:05:41;;;;;;;28.58;12.60;;;12.00;99.90;;;;;;6278418;22;20022;-88
2023/06/10 06:08:08;;;;;;;26.58;12.65;;;12.00;99.90;;;;;;6251416;22;20049;-91
2023/06/10 06:10:34;;;;;;;24.33;12.85;;;12.10;99.90;;;;;;6251605;22;20012;-89
2023/06/10 06:13:00;;;;;;;30.83;13.20;;;12.10;99.90;;;;;;6251682;22;20053;-89
2023/06/10 06:15:26;;;;;;;24.98;11.73;;;12.10;99.90;;;;;;6252503;22;20004;-89
2023/06/10 06:17:52;;;;;;;24.90;11.00;;;12.10;99.90;;;;;;6278640;22;20003;-88
2023/06/10 06:20:19;;;;;;;28.83;12.27;;;12.20;99.90;;;;;;6251408;22;20340;-89
2023/06/10 06:22:45;;;;;;;27.20;12.70;;;12.30;99.90;;;;;;6251483;22;19999;-88
2023/06/10 06:25:10;;;;;;;26.23;12.02;;;12.40;99.90;;;;;;6251866;22;20027;-88
2023/06/10 06:27:36;;;;;;;31.58;12.45;;;12.40;99.90;;;;;;6251124;22;20039;-89
2023/06/10 06:30:02;;;;;;;26.17;12.25;;;12.40;99.90;;;;;;6251113;22;20312;-89
2023/06/10 06:32:28;;;;;;;32.60;12.38;;;12.40;99.90;;;;;;6250869;22;20008;-89
2023/06/10 06:34:54;;;;;;;28.65;12.32;;;12.40;99.90;;;;;;6250789;22;20113;-89
2023/06/10 06:37:24;;;;;;;27.17;11.43;;;12.40;99.90;;;;;;6251146;22;20050;-89
2023/06/10 06:39:53;;;;;;;28.42;11.73;;;12.50;99.90;;;;;;6251193;22;20007;-89
2023/06/10 06:42:20;;;;;;;26.98;11.48;;;12.60;99.90;;;;;;6250587;22;20011;-89
2023/06/10 06:44:47;;;;;;;28.58;11.48;;;12.70;99.90;;;;;;6250947;22;20004;-90
2023/06/10 06:47:13;;;;;;;31.83;13.02;;;12.80;99.90;;;;;;6250597;22;20092;-90
2023/06/10 06:49:39;;;;;;;28.95;12.65;;;12.90;99.90;;;;;;6250850;22;20007;-90
2023/06/10 06:52:05;;;;;;;20.35;9.88;;;13.00;99.90;;;;;;6250508;22;20014;-89
2023/06/10 06:54:31;;;;;;;29.02;12.13;;;13.00;99.90;;;;;;6250003;22;20098;-88
2023/06/10 06:56:57;;;;;;;26.80;11.88;;;13.10;99.90;;;;;;6250611;22;20023;-89
2023/06/10 06:59:23;;;;;;;28.88;11.88;;;13.10;99.90;;;;;;6277393;22;20580;-91
2023/06/10 07:01:49;;;;;;;24.67;11.70;;;13.20;99.90;;;;;;6250679;22;20011;-90
2023/06/10 07:04:15;;;;;;;23.10;11.32;;;13.30;99.90;;;;;;6250734;22;20370;-91
2023/06/10 07:06:41;;;;;;;29.83;12.93;;;13.40;99.90;;;;;;6250406;22;20088;-90
2023/06/10 07:09:10;;;;;;;27.70;11.18;;;13.40;99.90;;;;;;6254707;22;20003;-89
2023/06/10 07:11:36;;;;;;;27.48;10.65;;;13.60;99.90;;;;;;6258488;22;20003;-89
2023/06/10 07:14:01;;;;;;;26.42;10.02;;;13.70;99.90;;;;;;6260429;22;20004;-90
2023/06/10 07:16:27;;;;;;;23.02;10.70;;;13.80;99.90;;;;;;6258504;22;20011;-89
2023/06/10 07:18:53;;;;;;;23.42;10.60;;;13.90;99.90;;;;;;6254800;22;20494;-90
2023/06/10 07:21:19;;;;;;;29.98;12.65;;;14.00;99.90;;;;;;6279893;22;20163;-89
2023/06/10 07:23:45;;;;;;;34.88;12.55;;;14.10;99.90;;;;;;6251646;22;20010;-90
2023/06/10 07:26:13;;;;;;;27.92;11.75;;;14.20;99.90;;;;;;6251075;22;20028;-90
2023/06/10 07:28:39;;;;;;;24.67;10.48;;;14.20;99.90;;;;;;6250604;22;20007;-90
2023/06/10 07:31:05;;;;;;;27.65;12.20;;;14.30;99.90;;;;;;6250202;22;20008;-90
2023/06/10 07:33:31;;;;;;;25.45;10.55;;;14.40;99.90;;;;;;6276964;22;20412;-90
2023/06/10 07:35:57;;;;;;;25.58;10.40;;;14.50;99.90;;;;;;6250704;22;20004;-89
2023/06/10 07:38:22;;;;;;;27.63;9.52;;;14.50;99.90;;;;;;6251816;22;20034;-90
2023/06/10 07:40:48;;;;;;;24.83;10.48;;;14.60;99.90;;;;;;6263205;22;20004;-91
2023/06/10 07:43:14;;;;;;;26.77;10.73;;;14.80;99.90;;;;;;6255390;22;20003;-90
2023/06/10 07:45:41;;;;;;;23.95;11.25;;;14.80;99.90;;;;;;6250498;22;20060;-90
2023/06/10 07:48:07;;;;;;;25.92;9.93;;;14.90;99.90;;;;;;6276276;22;20015;-89
2023/06/10 07:50:33;;;;;;;33.17;11.00;;;15.00;99.90;;;;;;6250569;22;20007;-90
2023/06/10 07:52:59;;;;;;;22.23;9.32;;;15.20;99.90;;;;;;6250834;22;20086;-90
2023/06/10 07:55:25;;;;;;;19.73;10.00;;;15.30;99.90;;;;;;6251171;22;20007;-89
2023/06/10 07:57:52;;;;;;;27.58;11.52;;;15.40;99.90;;;;;;6253635;22;20007;-90
2023/06/10 08:00:20;;;;;;;22.95;9.60;;;15.50;99.90;;;;;;6261463;22;20010;-90
2023/06/10 08:02:46;;;;;;;19.63;9.77;;;15.70;99.90;;;;;;6268520;22;19995;-89
2023/06/10 08:05:12;;;;;;;22.95;10.55;;;15.80;99.90;;;;;;6268372;22;20079;-91
2023/06/10 08:07:39;;;;;;;26.70;10.27;;;15.90;99.90;;;;;;6268398;22;20022;-89
2023/06/10 08:10:06;;;;;;;23.98;9.15;;;16.00;99.90;;;;;;6269078;22;20004;-88
2023/06/10 08:12:34;;;;;;;26.42;9.75;;;16.20;99.90;;;;;;6268338;22;20003;-90
2023/06/10 08:15:01;;;;;;;25.80;8.38;;;16.30;99.90;;;;;;6252210;23;20063;-89
2023/06/10 08:17:26;;;;;;;20.63;8.82;;;16.40;99.90;;;;;;6261104;23;19996;-90
2023/06/10 08:19:52;;;;;;;24.58;7.93;;;16.60;99.90;;;;;;6255387;22;20090;-90
2023/06/10 08:22:18;;;;;;;18.13;7.93;;;16.70;99.90;;;;;;6254639;22;20043;-90
2023/06/10 08:24:46;;;;;;;19.90;8.02;;;16.90;99.90;;;;;;6254041;22;20015;-91
2023/06/10 08:27:12;;;;;;;22.45;7.45;;;17.00;99.90;;;;;;6253411;22;20090;-89
2023/06/10 08:29:39;;;;;;;19.67;7.93;;;17.10;99.90;;;;;;6280560;22;20415;-91
2023/06/10 08:32:06;;;;;;;21.52;8.32;;;17.30;99.90;;;;;;6253626;22;20008;-90
2023/06/10 08:34:35;;;;;;;18.88;7.18;;;17.40;99.90;;;;;;6253849;22;20014;-89
2023/06/10 08:37:01;;;;;;;17.85;8.40;;;17.50;99.90;;;;;;6280710;22;20095;-89
2023/06/10 08:39:27;;;;;;;26.10;7.57;;;17.70;99.90;;;;;;6256718;22;19999;-89
2023/06/10 08:42:15;;;;;;;19.25;9.07;;;17.80;99.90;;;;;;6289606;22;20008;-89
2023/06/10 08:44:42;;;;;;;15.80;7.38;;;18.00;99.90;;;;;;6273255;22;19996;-92
2023/06/10 08:47:15;;;;;;;18.33;7.70;;;18.20;99.90;;;;;;6274058;22;20004;-88
2023/06/10 08:49:47;;;;;;;20.92;8.65;;;18.40;99.90;;;;;;6273148;22;20011;-90
2023/06/10 08:52:19;;;;;;;19.55;8.60;;;18.60;99.90;;;;;;6269177;22;20007;-91
2023/06/10 08:55:12;;;;;;;19.45;7.90;;;18.80;99.90;;;;;;6260371;22;20007;-90
2023/06/10 08:57:38;;;;;;;17.63;7.35;;;19.10;99.90;;;;;;6258422;22;20435;-90
2023/06/10 09:00:05;;;;;;;13.35;7.03;;;19.30;99.90;;;;;;6259757;22;20050;-90
2023/06/10 09:02:35;;;;;;;16.42;7.80;;;19.40;99.90;;;;;;6262702;22;20057;-91
2023/06/10 09:05:04;;;;;;;17.30;7.53;;;19.60;99.90;;;;;;6286798;22;20019;-91
2023/06/10 09:07:35;;;;;;;20.33;7.80;;;19.80;99.90;;;;;;6295373;22;20022;-90
2023/06/10 09:10:07;;;;;;;21.52;7.72;;;19.80;99.90;;;;;;6246690;23;20007;-91
2023/06/10 09:12:34;;;;;;;16.02;7.00;;;19.90;99.90;;;;;;6259435;23;20010;-91
2023/06/10 09:15:03;;;;;;;15.02;6.80;;;19.90;99.70;;;;;;6286141;22;20047;-91
2023/06/10 09:17:29;;;;;;;17.33;6.70;;;20.20;99.50;;;;;;6273417;22;20054;-89
2023/06/10 09:19:55;;;;;;;15.88;6.70;;;20.40;99.10;;;;;;6267763;22;20004;-90
2023/06/10 09:22:22;;;;;;;15.18;6.80;;;20.50;98.40;;;;;;6260973;22;19999;-90
2023/06/10 09:24:48;;;;;;;18.98;6.05;;;20.70;97.60;;;;;;6261440;22;20382;-91
2023/06/10 09:27:14;;;;;;;25.98;9.00;;;20.90;97.10;;;;;;6253309;22;20022;-91
2023/06/10 09:29:48;;;;;;;23.65;7.75;;;21.00;96.40;;;;;;6256498;22;20083;-91
2023/06/10 09:32:14;;;;;;;17.75;6.25;;;21.20;95.70;;;;;;6257339;22;20567;-92
2023/06/10 09:34:40;;;;;;;17.55;6.68;;;21.40;95.30;;;;;;6259360;22;20025;-93
2023/06/10 09:37:08;;;;;;;16.90;7.40;;;21.50;94.20;;;;;;6257940;22;19999;-92
2023/06/10 09:39:34;;;;;;;24.17;7.82;;;21.60;93.60;;;;;;6256289;22;20014;-91
2023/06/10 09:42:00;;;;;;;12.60;6.35;;;21.70;92.80;;;;;;6229211;22;20402;-92
2023/06/10 09:44:25;;;;;;;22.80;8.15;;;21.80;92.40;;;;;;6255012;22;20000;-92
2023/06/10 09:46:53;;;;;;;14.65;7.20;;;22.00;92.10;;;;;;6283130;22;20062;-93
2023/06/10 09:49:18;;;;;;;14.55;6.38;;;22.10;91.70;;;;;;6256427;22;20002;-92
2023/06/10 09:51:55;;;;;;;13.23;6.60;;;22.30;91.10;;;;;;6262407;22;20387;-92
2023/06/10 09:54:21;;;;;;;15.13;6.57;;;22.50;90.30;;;;;;6258148;22;20007;-92
2023/06/10 09:56:48;;;;;;;17.92;6.45;;;22.60;90.00;;;;;;6257087;22;20151;-91
2023/06/10 09:59:14;;;;;;;11.73;6.32;;;22.70;88.70;;;;;;6258104;22;20058;-92
2023/06/10 10:01:40;;;;;;;17.52;7.80;;;22.90;87.70;;;;;;6259418;22;20447;-92
2023/06/10 10:04:06;;;;;;;20.20;6.60;;;22.90;86.70;;;;;;6261330;22;20023;-92
2023/06/10 10:06:31;;;;;;;18.80;7.30;;;23.00;86.20;;;;;;6271816;22;20023;-91
2023/06/10 10:08:57;;;;;;;17.55;7.40;;;23.10;85.40;;;;;;6298384;22;20023;-89
2023/06/10 10:11:25;;;;;;;18.27;7.20;;;23.10;84.40;;;;;;6269464;22;20112;-91
2023/06/10 10:13:52;;;;;;;19.02;7.25;;;23.20;84.10;;;;;;6272479;22;20003;-91
2023/06/10 10:16:21;;;;;;;20.70;7.53;;;23.30;83.60;;;;;;6271940;22;20019;-91
2023/06/10 10:18:56;;;;;;;16.40;6.90;;;23.40;83.10;;;;;;6266510;22;20004;-92
2023/06/10 10:21:31;;;;;;;19.98;7.80;;;23.50;82.30;;;;;;6259242;22;20030;-92
2023/06/10 10:24:14;;;;;;;16.20;7.45;;;23.60;82.20;;;;;;6258695;22;20071;-91
2023/06/10 10:26:43;;;;;;;16.65;6.53;;;23.70;81.60;;;;;;6281725;22;20011;-92
2023/06/10 10:29:12;;;;;;;19.52;7.32;;;23.90;81.20;;;;;;6255545;22;20030;-93
2023/06/10 10:31:39;;;;;;;19.27;7.07;;;24.10;80.60;;;;;;6280611;22;20008;-91
2023/06/10 10:34:13;;;;;;;18.52;7.35;;;24.20;80.10;;;;;;6253622;22;20034;-92
2023/06/10 10:36:39;;;;;;;19.50;6.97;;;24.50;79.10;;;;;;6253979;22;20008;-91
2023/06/10 10:39:05;;;;;;;20.60;7.18;;;24.70;78.20;;;;;;6253115;22;20008;-91
2023/06/10 10:41:32;;;;;;;19.00;7.30;;;24.80;77.30;;;;;;6252955;22;20449;-92
2023/06/10 10:43:59;;;;;;;19.20;7.35;;;24.90;76.70;;;;;;6280096;22;20003;-91
2023/06/10 10:46:25;;;;;;;16.65;7.25;;;25.00;75.90;;;;;;6252920;22;20382;-91
2023/06/10 10:48:54;;;;;;;14.85;6.95;;;25.20;75.70;;;;;;6253466;22;20003;-91
2023/06/10 10:51:20;;;;;;;17.55;6.95;;;25.30;75.10;;;;;;6253113;22;19999;-92
2023/06/10 10:54:15;;;;;;;16.13;6.80;;;25.30;74.70;;;;;;6253320;22;20004;-90
2023/06/10 10:57:11;;;;;;;14.40;7.05;;;25.50;74.20;;;;;;6248068;23;20027;-92
2023/06/10 10:59:49;;;;;;;14.85;6.85;;;25.70;73.40;;;;;;6247582;23;20035;-92
2023/06/10 11:02:33;;;;;;;15.02;6.68;;;25.70;73.60;;;;;;6247223;23;20027;-92
2023/06/10 11:05:00;;;;;;;18.08;6.88;;;25.70;73.30;;;;;;6247565;23;20019;-92
2023/06/10 11:07:26;;;;;;;17.50;8.20;;;25.80;73.10;;;;;;6247612;23;20097;-90
2023/06/10 11:10:12;;;;;;;16.75;7.10;;;25.90;72.90;;;;;;6249653;23;19996;-90
2023/06/10 11:12:47;;;;;;;16.17;6.88;;;26.10;72.00;;;;;;6247697;23;20008;-92
2023/06/10 11:15:13;;;;;;;11.07;6.03;;;26.20;71.30;;;;;;6251344;22;19992;-92
2023/06/10 11:18:16;;;;;;;14.40;5.90;;;26.30;71.30;;;;;;6256138;23;20007;-91
2023/06/10 11:20:43;;;;;;;15.93;6.82;;;26.50;70.90;;;;;;6264073;23;20000;-93
2023/06/10 11:23:09;;;;;;;12.85;6.15;;;26.70;70.90;;;;;;6257918;23;20062;-92
2023/06/10 11:25:49;;;;;;;14.73;7.32;;;26.80;69.90;;;;;;6246946;23;20008;-91
2023/06/10 11:28:19;;;;;;;15.55;7.10;;;27.00;69.00;;;;;;6249642;23;20068;-91
2023/06/10 11:30:46;;;;;;;13.00;6.65;;;27.00;68.50;;;;;;6247373;23;20000;-92
2023/06/10 11:33:16;;;;;;;14.88;6.80;;;27.30;68.30;;;;;;6248858;22;20012;-92
2023/06/10 11:35:43;;;;;;;13.98;6.93;;;27.50;67.70;;;;;;6254239;23;20000;-91
2023/06/10 11:38:09;;;;;;;15.93;6.53;;;27.70;67.00;;;;;;6249451;23;20091;-93
2023/06/10 11:40:37;;;;;;;15.40;6.85;;;27.90;66.50;;;;;;6249056;23;20427;-91
2023/06/10 11:43:04;;;;;;;14.20;6.25;;;28.00;65.70;;;;;;6248934;23;20014;-92
2023/06/10 11:45:31;;;;;;;14.00;6.80;;;28.10;65.40;;;;;;6249604;23;20101;-92
2023/06/10 11:47:58;;;;;;;16.45;6.72;;;28.00;65.60;;;;;;6250727;23;20073;-93
2023/06/10 11:50:34;;;;;;;16.33;8.05;;;28.00;65.50;;;;;;6251892;23;20008;-91
2023/06/10 11:52:59;;;;;;;15.25;7.20;;;28.10;65.20;;;;;;6253831;23;20039;-92
2023/06/10 11:55:40;;;;;;;13.38;6.80;;;28.10;65.10;;;;;;6275273;22;20012;-90
2023/06/10 11:58:21;;;;;;;13.27;6.95;;;28.10;64.80;;;;;;6262750;22;20012;-91
2023/06/10 12:00:49;;;;;;;17.05;6.78;;;28.00;64.50;;;;;;6298006;22;19995;-91
2023/06/10 12:03:15;;;;;;;15.65;6.40;;;28.00;64.70;;;;;;6292252;22;20004;-92
2023/06/10 12:06:03;;;;;;;21.83;7.85;;;28.30;64.80;;;;;;6263410;22;20004;-91
2023/06/10 12:08:29;;;;;;;16.90;6.55;;;28.60;64.60;;;;;;6267312;22;20099;-91
2023/06/10 12:10:57;;;;;;;13.38;6.93;;;28.70;64.10;;;;;;6272713;22;20004;-92
2023/06/10 12:13:26;;;;;;;16.65;5.88;;;28.90;62.90;;;;;;6273354;22;20007;-92
2023/06/10 12:15:52;;;;;;;12.90;6.50;;;29.00;62.70;;;;;;6272098;22;20082;-92
2023/06/10 12:18:18;;;;;;;14.25;6.63;;;29.10;62.70;;;;;;6272291;22;20004;-93
2023/06/10 12:20:44;;;;;;;13.73;7.03;;;29.20;62.60;;;;;;6298605;22;20133;-92
2023/06/10 12:23:11;;;;;;;13.05;6.40;;;29.30;62.30;;;;;;6269041;22;19999;-92
2023/06/10 12:25:38;;;;;;;13.32;6.95;;;29.30;62.20;;;;;;6268980;22;20012;-91
2023/06/10 12:28:04;;;;;;;14.48;6.38;;;29.40;61.70;;;;;;6260342;22;20015;-94
2023/06/10 12:30:30;;;;;;;13.48;6.45;;;29.40;61.50;;;;;;6255945;22;20000;-90
2023/06/10 12:32:57;;;;;;;17.30;7.03;;;29.50;61.50;;;;;;6256019;22;20008;-92